createdAt,value
2018-10-01T00:02:41.913Z,5.23
2018-10-01T00:07:45.101Z,5.13
2018-10-01T00:12:49.351Z,4.90
2018-10-01T00:17:52.523Z,4.77
2018-10-01T00:22:55.700Z,5.20
2018-10-01T00:27:58.878Z,4.33
2018-10-01T00:33:02.153Z,5.13
2018-10-01T00:38:05.300Z,5.10
2018-10-01T00:43:08.476Z,5.43
2018-10-01T00:48:11.623Z,5.17
2018-10-01T00:53:14.782Z,5.80
2018-10-01T00:58:17.955Z,5.37
2018-10-01T01:03:21.111Z,5.47
2018-10-01T01:08:24.286Z,6.33
2018-10-01T01:13:27.469Z,5.67
2018-10-01T01:18:30.734Z,5.23
2018-10-01T01:23:33.908Z,5.57
2018-10-01T01:28:37.084Z,5.17
2018-10-01T01:33:40.333Z,6.00
2018-10-01T01:38:43.618Z,4.90
2018-10-01T01:43:46.791Z,5.03
2018-10-01T01:48:51.050Z,4.40
2018-10-01T01:53:54.259Z,4.40
2018-10-01T01:58:57.431Z,4.50
2018-10-01T02:04:00.580Z,5.23
2018-10-01T02:09:04.873Z,5.20
2018-10-01T02:14:08.031Z,5.10
2018-10-01T02:19:11.202Z,4.80
2018-10-01T02:24:14.362Z,4.77
2018-10-01T02:29:17.509Z,4.30
2018-10-01T02:34:20.675Z,4.53
2018-10-01T02:39:23.884Z,4.50
2018-10-01T02:44:27.051Z,4.60
2018-10-01T02:49:30.221Z,4.57
2018-10-01T02:54:34.415Z,3.83
2018-10-01T02:59:37.557Z,3.20
2018-10-01T03:04:40.711Z,2.47
2018-10-01T03:09:43.895Z,3.73
2018-10-01T03:14:47.062Z,2.50
2018-10-01T03:19:50.256Z,2.70
2018-10-01T03:24:53.422Z,2.77
2018-10-01T03:29:56.591Z,2.97
2018-10-01T03:35:05.218Z,2.87
2018-10-01T03:40:08.686Z,3.77
2018-10-01T03:45:11.746Z,3.37
2018-10-01T03:50:14.907Z,3.43
2018-10-01T03:55:18.052Z,3.83
2018-10-01T04:00:21.225Z,4.00
2018-10-01T04:05:24.631Z,3.57
2018-10-01T04:10:27.796Z,3.33
2018-10-01T04:15:30.967Z,4.50
2018-10-01T04:20:34.270Z,3.47
2018-10-01T04:25:37.411Z,4.63
2018-10-01T04:30:40.579Z,3.63
2018-10-01T04:35:43.742Z,3.47
2018-10-01T04:40:46.927Z,3.33
2018-10-01T04:45:50.079Z,3.20
2018-10-01T04:50:53.256Z,3.70
2018-10-01T04:55:56.432Z,3.00
2018-10-01T05:00:59.610Z,3.20
2018-10-01T05:06:02.778Z,3.67
2018-10-01T05:11:05.994Z,3.07
2018-10-01T05:16:09.149Z,3.40
2018-10-01T05:21:12.298Z,2.87
2018-10-01T05:26:15.498Z,2.63
2018-10-01T05:31:18.680Z,2.40
2018-10-01T05:36:21.855Z,2.53
2018-10-01T05:41:25.009Z,2.07
2018-10-01T05:46:28.263Z,2.93
2018-10-01T05:51:31.481Z,2.97
2018-10-01T05:56:34.676Z,2.90
2018-10-01T06:01:37.896Z,2.47
2018-10-01T06:06:41.087Z,3.57
2018-10-01T06:11:44.365Z,2.67
2018-10-01T06:16:48.679Z,3.10
2018-10-01T06:21:51.884Z,2.67
2018-10-01T06:27:00.286Z,2.70
2018-10-01T06:32:03.457Z,2.47
2018-10-01T06:37:09.970Z,2.60
2018-10-01T06:42:13.201Z,2.20
2018-10-01T06:47:16.386Z,2.23
2018-10-01T06:52:19.546Z,2.60
2018-10-01T06:57:24.802Z,2.10
2018-10-01T07:02:28.100Z,1.90
2018-10-01T07:07:31.270Z,1.87
2018-10-01T07:12:34.406Z,1.80
2018-10-01T07:17:37.640Z,2.20
2018-10-01T07:22:41.417Z,2.20
2018-10-01T07:27:44.537Z,1.27
2018-10-01T07:32:47.741Z,1.10
2018-10-01T07:37:50.942Z,0.93
2018-10-01T07:42:54.134Z,1.23
2018-10-01T07:47:57.306Z,0.90
2018-10-01T07:53:00.558Z,1.27
2018-10-01T07:58:03.819Z,1.10
2018-10-01T08:03:07.038Z,0.90
2018-10-01T08:08:10.234Z,1.00
2018-10-01T08:13:13.395Z,1.03
2018-10-01T08:18:17.134Z,1.00
2018-10-01T08:23:20.344Z,0.83
2018-10-01T08:28:23.503Z,0.70
2018-10-01T08:33:26.678Z,1.00
2018-10-01T08:38:29.930Z,0.80
2018-10-01T08:43:35.100Z,0.60
2018-10-01T08:49:49.485Z,1.47
2018-10-01T08:54:52.637Z,1.03
2018-10-01T08:59:55.826Z,0.40
2018-10-01T09:05:00.102Z,0.80
2018-10-01T09:10:10.515Z,0.50
2018-10-01T09:15:17.033Z,0.60
2018-10-01T09:20:20.396Z,0.70
2018-10-01T09:25:23.601Z,0.97
2018-10-01T09:30:26.781Z,0.63
2018-10-01T09:35:30.009Z,0.63
2018-10-01T09:40:33.224Z,0.60
2018-10-01T09:45:36.416Z,0.50
2018-10-01T09:50:39.659Z,0.40
2018-10-01T09:55:42.857Z,0.33
2018-10-01T10:00:52.121Z,0.70
2018-10-01T10:05:55.501Z,0.70
2018-10-01T10:10:58.735Z,0.40
2018-10-01T10:16:03.008Z,0.50
2018-10-01T10:21:08.206Z,0.70
2018-10-01T10:26:11.632Z,0.63
2018-10-01T10:31:15.862Z,0.77
2018-10-01T10:36:23.182Z,0.57
2018-10-01T10:41:45.155Z,0.80
2018-10-01T10:46:49.352Z,0.80
2018-10-01T10:51:53.619Z,0.80
2018-10-01T10:56:56.976Z,0.40
2018-10-01T11:02:00.116Z,0.50
2018-10-01T11:07:06.793Z,0.40
2018-10-01T11:12:10.014Z,0.27
2018-10-01T11:17:18.866Z,0.30
2018-10-01T11:22:22.215Z,0.20
2018-10-01T11:27:26.794Z,0.30
2018-10-01T11:32:30.062Z,0.30
2018-10-01T11:37:34.488Z,0.27
2018-10-01T11:42:37.685Z,0.10
2018-10-01T11:47:40.923Z,0.17
2018-10-01T11:52:44.118Z,0.70
2018-10-01T11:57:48.429Z,0.40
2018-10-01T12:02:51.515Z,0.60
2018-10-01T12:07:54.828Z,0.30
2018-10-01T12:12:58.026Z,0.10
2018-10-01T12:18:01.312Z,0.20
2018-10-01T12:23:04.555Z,0.20
2018-10-01T12:28:14.854Z,0.30
2018-10-01T12:33:18.155Z,0.40
2018-10-01T12:38:21.287Z,0.60
2018-10-01T12:43:24.653Z,0.67
2018-10-01T12:48:27.917Z,0.60
2018-10-01T12:53:31.111Z,0.83
2018-10-01T12:58:34.331Z,1.17
2018-10-01T13:03:37.737Z,1.27
2018-10-01T13:08:42.978Z,1.10
2018-10-01T13:13:47.212Z,1.40
2018-10-01T13:18:50.546Z,1.33
2018-10-01T13:23:57.323Z,1.07
2018-10-01T13:29:00.513Z,1.40
2018-10-01T13:34:03.747Z,0.90
2018-10-01T13:39:08.641Z,1.33
2018-10-01T13:44:11.807Z,1.20
2018-10-01T13:49:15.119Z,1.10
2018-10-01T13:54:22.860Z,0.90
2018-10-01T13:59:25.995Z,1.33
2018-10-01T14:04:29.238Z,1.17
2018-10-01T14:09:32.464Z,0.90
2018-10-01T14:14:52.298Z,0.90
2018-10-01T14:19:55.847Z,1.40
2018-10-01T14:25:07.628Z,1.17
2018-10-01T14:30:15.327Z,1.10
2018-10-01T14:35:18.683Z,1.07
2018-10-01T14:40:42.606Z,0.63
2018-10-01T14:45:45.865Z,0.80
2018-10-01T14:50:51.104Z,0.70
2018-10-01T14:55:54.378Z,0.50
2018-10-01T15:00:59.893Z,0.40
2018-10-01T15:06:03.108Z,0.60
2018-10-01T15:11:08.387Z,0.80
2018-10-01T15:16:11.820Z,0.30
2018-10-01T15:21:25.063Z,0.50
2018-10-01T15:26:28.374Z,0.47
2018-10-01T15:31:31.652Z,0.27
2018-10-01T15:36:35.894Z,0.23
2018-10-01T15:41:39.247Z,0.20
2018-10-01T15:46:42.490Z,0.20
2018-10-01T15:51:55.826Z,0.30
2018-10-01T15:56:59.025Z,0.30
2018-10-01T16:02:02.500Z,0.30
2018-10-01T16:07:12.782Z,0.43
2018-10-01T16:12:16.019Z,0.63
2018-10-01T16:17:21.307Z,0.40
2018-10-01T16:22:25.554Z,0.63
2018-10-01T16:27:28.774Z,0.73
2018-10-01T16:32:31.987Z,0.50
2018-10-01T16:37:35.191Z,0.73
2018-10-01T16:42:38.399Z,0.57
2018-10-01T16:47:41.667Z,0.63
2018-10-01T16:52:44.885Z,0.70
2018-10-01T16:57:49.141Z,0.40
2018-10-01T17:02:52.387Z,0.40
2018-10-01T17:07:56.950Z,0.40
2018-10-01T17:13:00.247Z,0.50
2018-10-01T17:18:03.510Z,0.40
2018-10-01T17:23:12.269Z,0.30
2018-10-01T17:28:15.518Z,0.40
2018-10-01T17:33:18.695Z,1.30
2018-10-01T17:38:22.079Z,0.60
2018-10-01T17:43:25.307Z,0.60
2018-10-01T17:48:28.546Z,0.77
2018-10-01T17:53:31.795Z,0.80
2018-10-01T17:58:35.111Z,2.43
2018-10-01T18:03:38.348Z,1.20
2018-10-01T18:08:41.582Z,1.20
2018-10-01T18:13:45.885Z,1.00
2018-10-01T18:18:49.415Z,1.10
2018-10-01T18:23:52.758Z,0.60
2018-10-01T18:28:56.322Z,3.00
2018-10-01T18:33:59.655Z,1.20
2018-10-01T18:39:14.298Z,1.07
2018-10-01T18:44:17.534Z,3.40
2018-10-01T18:49:21.191Z,1.50
2018-10-01T18:54:24.511Z,1.43
2018-10-01T18:59:27.815Z,1.07
2018-10-01T19:04:31.844Z,1.40
2018-10-01T19:09:40.638Z,2.43
2018-10-01T19:14:43.989Z,0.90
2018-10-01T19:19:51.006Z,2.03
2018-10-01T19:24:57.926Z,1.80
2018-10-01T19:30:02.323Z,1.93
2018-10-01T19:35:06.977Z,1.47
2018-10-01T19:40:14.346Z,1.50
2018-10-01T19:45:17.913Z,3.80
2018-10-01T19:50:21.091Z,2.17
2018-10-01T19:55:25.468Z,2.33
2018-10-01T20:00:29.876Z,1.57
2018-10-01T20:05:36.895Z,1.60
2018-10-01T20:10:40.088Z,1.90
2018-10-01T20:15:49.359Z,2.17
2018-10-01T20:20:53.712Z,2.10
2018-10-01T20:25:59.074Z,2.70
2018-10-01T20:31:03.231Z,3.67
2018-10-01T20:36:06.643Z,2.73
2018-10-01T20:41:09.774Z,3.03
2018-10-01T20:46:19.526Z,2.97
2018-10-01T20:51:26.528Z,3.10
2018-10-01T21:02:09.653Z,3.03
2018-10-01T21:07:31.989Z,3.23
2018-10-01T21:12:35.273Z,2.70
2018-10-01T21:17:38.487Z,3.10
2018-10-01T21:22:41.671Z,2.83
2018-10-01T21:27:44.894Z,2.57
2018-10-01T21:32:48.103Z,2.43
2018-10-01T21:37:55.011Z,2.47
2018-10-01T21:42:58.182Z,2.70
2018-10-01T21:48:01.345Z,2.70
2018-10-01T21:53:04.527Z,1.97
2018-10-01T21:58:08.090Z,3.10
2018-10-01T22:03:11.255Z,2.63
2018-10-01T22:08:17.619Z,3.50
2018-10-01T22:13:20.781Z,2.80
2018-10-01T22:18:23.986Z,3.03
2018-10-01T22:23:27.160Z,3.17
2018-10-01T22:28:30.343Z,2.80
2018-10-01T22:33:33.543Z,2.70
2018-10-01T22:38:36.758Z,2.93
2018-10-01T22:43:39.943Z,2.30
2018-10-01T22:48:43.307Z,2.50
2018-10-01T22:53:46.504Z,3.03
2018-10-01T22:58:49.708Z,3.20
2018-10-01T23:03:53.965Z,3.07
2018-10-01T23:08:57.154Z,3.20
2018-10-01T23:14:00.376Z,2.80
2018-10-01T23:19:03.554Z,2.90
2018-10-01T23:24:06.707Z,3.00
2018-10-01T23:29:09.885Z,3.30
2018-10-01T23:34:15.063Z,3.13
2018-10-01T23:39:18.245Z,3.17
2018-10-01T23:44:21.426Z,3.60
2018-10-01T23:49:24.621Z,3.40
2018-10-01T23:54:27.790Z,3.00
2018-10-01T23:59:30.974Z,4.00
